This is the latest recevied weather packets stored in our database for station/object YO4FZV-11. If no packets are shown the sender has not sent any weather packets the latest 1 day(s).
| Time | Temp. | Humidity | Pressure | Rain* | Wind** | Luminosity | Snow |
|---|---|---|---|---|---|---|---|
| 1778065077 | 20.56° C | 56% | 1014.7 hPa | 0 mm | - | - | - |
| 1778064777 | 20.56° C | 56% | 1014.7 hPa | 0 mm | - | - | - |
| 1778064477 | 20.56° C | 57% | 1014.8 hPa | 0 mm | - | - | - |
| 1778063577 | 20.56° C | 57% | 1014.8 hPa | 0 mm | - | - | - |
| 1778063277 | 20.56° C | 57% | 1014.7 hPa | 0 mm | - | - | - |
| 1778062677 | 20° C | 59% | 1014.7 hPa | 0 mm | - | - | - |
| 1778062078 | 20° C | 59% | 1014.7 hPa | 0 mm | - | - | - |
| 1778060277 | 20° C | 60% | 1014.6 hPa | 0 mm | - | - | - |
| 1778059978 | 20° C | 60% | 1014.7 hPa | 0 mm | - | - | - |
| 1778059677 | 20° C | 59% | 1014.7 hPa | 0 mm | - | - | - |
| 1778059077 | 20.56° C | 59% | 1014.6 hPa | 0 mm | - | - | - |
| 1778058777 | 20.56° C | 60% | 1014.6 hPa | 0 mm | - | - | - |
| 1778058477 | 20.56° C | 59% | 1014.6 hPa | 0 mm | - | - | - |
| 1778057277 | 20.56° C | 59% | 1014.5 hPa | 0 mm | - | - | - |
| 1778053077 | 20.56° C | 56% | 1014.1 hPa | 0 mm | - | - | - |
| 1778051877 | 21.11° C | 53% | 1014 hPa | 0 mm | - | - | - |
| 1778051577 | 21.11° C | 53% | 1014 hPa | 0 mm | - | - | - |
| 1778044677 | 20° C | 49% | 1013.2 hPa | 0 mm | - | - | - |
| 1778044077 | 21.11° C | 48% | 1013.2 hPa | 0 mm | - | - | - |
| 1778043477 | 21.11° C | 50% | 1013 hPa | 0 mm | - | - | - |
| 1778041677 | 15° C | 65% | 1013 hPa | 0 mm | - | - | - |
| 1778040478 | 13.33° C | 69% | 1012.7 hPa | 0 mm | - | - | - |
| 1778038677 | 8.33° C | 81% | 1012.4 hPa | 0 mm | - | - | - |
| 1778038378 | 6.67° C | 84% | 1012.4 hPa | 0 mm | - | - | - |
| 1778038077 | 5.56° C | 84% | 1012.4 hPa | 0 mm | - | - | - |
* Rain latest hour (hover to see other rain measurements)
** Current wind speed in m/s (hover to see current wind gust speed)